createdAt,value
2023-04-15T00:01:45.794Z,10.27
2023-04-15T00:04:13.667Z,8.20
2023-04-15T00:06:41.961Z,6.03
2023-04-15T00:09:09.755Z,6.95
2023-04-15T00:11:37.516Z,7.97
2023-04-15T00:14:06.482Z,8.90
2023-04-15T00:16:34.142Z,7.75
2023-04-15T00:19:02.187Z,9.83
2023-04-15T00:21:30.093Z,7.70
2023-04-15T00:23:57.888Z,6.50
2023-04-15T00:26:25.531Z,7.45
2023-04-15T00:28:54.006Z,8.07
2023-04-15T00:31:22.098Z,10.82
2023-04-15T00:33:49.912Z,7.90
2023-04-15T00:36:17.917Z,5.87
2023-04-15T00:38:45.849Z,9.90
2023-04-15T00:41:13.574Z,6.90
2023-04-15T00:43:41.561Z,8.43
2023-04-15T00:46:09.676Z,6.13
2023-04-15T00:48:38.359Z,6.57
2023-04-15T00:51:07.359Z,12.00
2023-04-15T00:53:35.054Z,6.63
2023-04-15T00:56:02.730Z,10.00
2023-04-15T00:58:30.402Z,7.55
2023-04-15T01:00:58.317Z,8.73
2023-04-15T01:03:26.330Z,7.18
2023-04-15T01:05:58.473Z,7.05
2023-04-15T01:08:29.601Z,4.17
2023-04-15T01:11:00.099Z,7.82
2023-04-15T01:13:28.322Z,5.43
2023-04-15T01:15:56.314Z,6.60
2023-04-15T01:18:24.154Z,6.47
2023-04-15T01:20:51.820Z,4.35
2023-04-15T01:23:19.536Z,5.60
2023-04-15T01:25:47.690Z,7.13
2023-04-15T01:28:18.469Z,5.75
2023-04-15T01:30:46.038Z,4.50
2023-04-15T01:33:13.761Z,6.77
2023-04-15T01:35:41.646Z,7.90
2023-04-15T01:38:09.802Z,6.53
2023-04-15T01:40:37.950Z,5.65
2023-04-15T01:43:06.673Z,10.20
2023-04-15T01:45:34.362Z,9.57
2023-04-15T01:48:02.376Z,8.85
2023-04-15T01:50:30.082Z,9.53
2023-04-15T01:52:57.805Z,8.13
2023-04-15T01:55:25.664Z,8.05
2023-04-15T01:57:53.530Z,7.97
2023-04-15T02:00:22.427Z,9.38
2023-04-15T02:02:50.334Z,8.65
2023-04-15T02:05:18.031Z,7.07
2023-04-15T02:07:46.193Z,8.27
2023-04-15T02:10:13.884Z,6.13
2023-04-15T02:12:41.782Z,8.88
2023-04-15T02:15:10.523Z,9.50
2023-04-15T02:17:38.290Z,10.65
2023-04-15T02:20:06.402Z,10.93
2023-04-15T02:22:34.038Z,8.27
2023-04-15T02:25:01.775Z,7.50
2023-04-15T02:27:30.761Z,6.50
2023-04-15T02:29:58.487Z,6.78
2023-04-15T02:32:26.272Z,7.77
2023-04-15T02:34:53.954Z,8.55
2023-04-15T02:37:21.747Z,7.05
2023-04-15T02:39:50.128Z,8.00
2023-04-15T02:42:17.764Z,8.13
2023-04-15T02:44:45.561Z,9.80
2023-04-15T02:47:14.557Z,6.83
2023-04-15T02:49:42.203Z,11.00
2023-04-15T02:52:10.190Z,7.80
2023-04-15T02:54:37.915Z,11.80
2023-04-15T02:57:07.050Z,8.87
2023-04-15T02:59:34.688Z,9.18
2023-04-15T03:02:02.469Z,8.98
2023-04-15T03:04:31.029Z,9.80
2023-04-15T03:06:58.839Z,9.85
2023-04-15T03:09:26.789Z,12.88
2023-04-15T03:11:54.994Z,7.40
2023-04-15T03:14:22.759Z,9.60
2023-04-15T03:16:52.093Z,9.97
2023-04-15T03:19:20.829Z,8.98
2023-04-15T03:21:48.483Z,7.90
2023-04-15T03:24:16.271Z,9.87
2023-04-15T03:26:43.931Z,9.75
2023-04-15T03:29:11.795Z,9.20
2023-04-15T03:31:39.476Z,10.13
2023-04-15T03:34:07.512Z,9.37
2023-04-15T03:36:35.180Z,9.18
2023-04-15T03:39:03.420Z,11.98
2023-04-15T03:41:31.163Z,9.70
2023-04-15T03:43:59.044Z,10.48
2023-04-15T03:46:26.918Z,9.43
2023-04-15T03:48:54.640Z,9.20
2023-04-15T03:51:22.396Z,7.82
2023-04-15T03:53:50.040Z,8.38
2023-04-15T03:56:17.731Z,8.70
2023-04-15T03:58:45.483Z,9.93
2023-04-15T04:01:13.233Z,6.15
2023-04-15T04:03:41.126Z,6.80
2023-04-15T04:06:08.992Z,6.70
2023-04-15T04:08:36.800Z,5.65
2023-04-15T04:11:04.764Z,5.70
2023-04-15T04:13:32.420Z,6.17
2023-04-15T04:16:00.301Z,5.93
2023-04-15T04:18:28.144Z,4.53
2023-04-15T04:20:56.039Z,5.38
2023-04-15T04:23:23.727Z,9.30
2023-04-15T04:25:51.616Z,5.38
2023-04-15T04:28:19.419Z,4.88
2023-04-15T04:30:47.088Z,11.80
2023-04-15T04:33:14.674Z,4.75
2023-04-15T04:35:42.399Z,7.47
2023-04-15T04:38:10.109Z,9.10
2023-04-15T04:40:37.842Z,7.68
2023-04-15T04:43:06.741Z,9.90
2023-04-15T04:45:34.487Z,6.40
2023-04-15T04:48:02.279Z,6.77
2023-04-15T04:50:29.921Z,6.35
2023-04-15T04:52:57.571Z,7.00
2023-04-15T04:55:25.290Z,9.17
2023-04-15T04:57:53.179Z,8.13
2023-04-15T05:00:21.364Z,7.65
2023-04-15T05:02:49.473Z,9.60
2023-04-15T05:05:17.437Z,7.35
2023-04-15T05:07:45.674Z,9.27
2023-04-15T05:10:14.882Z,7.43
2023-04-15T05:12:42.665Z,9.43
2023-04-15T05:15:10.607Z,10.50
2023-04-15T05:17:38.987Z,9.32
2023-04-15T05:20:07.061Z,12.40
2023-04-15T05:22:34.729Z,9.55
2023-04-15T05:25:02.435Z,9.45
2023-04-15T05:27:30.238Z,10.73
2023-04-15T05:29:58.039Z,12.35
2023-04-15T05:32:25.848Z,11.82
2023-04-15T05:34:53.578Z,13.95
2023-04-15T05:37:22.411Z,9.17
2023-04-15T05:39:50.070Z,9.80
2023-04-15T05:42:17.690Z,11.75
2023-04-15T05:44:45.347Z,9.17
2023-04-15T05:47:13.088Z,9.65
2023-04-15T05:49:42.200Z,9.15
2023-04-15T05:52:09.865Z,10.57
2023-04-15T05:54:37.983Z,9.60
2023-04-15T05:57:06.726Z,7.10
2023-04-15T05:59:34.425Z,7.93
2023-04-15T06:02:02.224Z,10.40
2023-04-15T06:04:30.516Z,9.95
2023-04-15T06:06:58.325Z,9.02
2023-04-15T06:09:26.065Z,16.73
2023-04-15T06:11:54.064Z,11.45
2023-04-15T06:14:24.293Z,12.48
2023-04-15T06:16:53.449Z,11.53
2023-04-15T06:19:21.120Z,9.85
2023-04-15T06:21:48.813Z,10.77
2023-04-15T06:24:16.480Z,8.23
2023-04-15T06:26:44.055Z,7.47
2023-04-15T06:29:11.770Z,11.38
2023-04-15T06:31:39.416Z,9.00
2023-04-15T06:34:07.463Z,9.13
2023-04-15T06:36:35.085Z,10.23
2023-04-15T06:39:03.030Z,10.45
2023-04-15T06:41:30.866Z,11.17
2023-04-15T06:43:58.844Z,10.43
2023-04-15T06:46:26.876Z,5.70
2023-04-15T06:48:55.354Z,5.13
2023-04-15T06:51:26.580Z,6.20
2023-04-15T06:53:54.712Z,5.07
2023-04-15T06:56:23.370Z,5.80
2023-04-15T06:58:51.394Z,4.63
2023-04-15T07:01:19.094Z,7.18
2023-04-15T07:03:47.060Z,5.13
2023-04-15T07:06:14.846Z,10.17
2023-04-15T07:08:43.045Z,7.18
2023-04-15T07:11:10.754Z,6.90
2023-04-15T07:13:41.525Z,7.47
2023-04-15T07:16:09.153Z,7.37
2023-04-15T07:18:36.852Z,9.07
2023-04-15T07:21:06.651Z,9.23
2023-04-15T07:23:34.378Z,7.83
2023-04-15T07:26:02.489Z,6.63
2023-04-15T07:28:30.374Z,7.72
2023-04-15T07:30:58.116Z,7.30
2023-04-15T07:33:26.003Z,6.32
2023-04-15T07:35:53.691Z,8.48
2023-04-15T07:38:21.434Z,6.10
2023-04-15T07:40:49.764Z,6.47
2023-04-15T07:43:17.437Z,6.85
2023-04-15T07:45:46.320Z,8.98
2023-04-15T07:48:14.206Z,11.70
2023-04-15T07:50:41.947Z,11.85
2023-04-15T07:53:09.715Z,6.50
2023-04-15T07:55:37.384Z,6.30
2023-04-15T07:58:05.149Z,7.60
2023-04-15T08:00:32.883Z,3.35
2023-04-15T08:03:00.916Z,5.13
2023-04-15T08:05:28.895Z,7.60
2023-04-15T08:07:56.778Z,4.35
2023-04-15T08:10:24.405Z,5.63
2023-04-15T08:12:54.427Z,5.97
2023-04-15T08:15:22.434Z,5.63
2023-04-15T08:17:50.678Z,4.15
2023-04-15T08:20:19.046Z,3.57
2023-04-15T08:22:51.945Z,14.68
2023-04-15T08:25:22.550Z,5.75
2023-04-15T08:27:50.385Z,3.47
2023-04-15T08:30:18.154Z,2.40
2023-04-15T08:32:49.108Z,4.43
2023-04-15T08:35:16.859Z,2.70
2023-04-15T08:37:44.675Z,3.73
2023-04-15T08:40:12.934Z,3.33
2023-04-15T08:42:45.183Z,5.88
2023-04-15T08:45:13.448Z,3.40
2023-04-15T08:47:41.264Z,5.07
2023-04-15T08:50:10.828Z,4.68
2023-04-15T08:52:38.566Z,3.05
2023-04-15T08:55:06.433Z,6.73
2023-04-15T08:57:34.282Z,5.07
2023-04-15T09:00:03.842Z,2.45
2023-04-15T09:02:33.086Z,2.83
2023-04-15T09:05:01.074Z,7.57
2023-04-15T09:07:28.883Z,4.85
2023-04-15T09:09:57.420Z,2.23
2023-04-15T09:12:25.121Z,6.85
2023-04-15T09:14:52.952Z,3.33
2023-04-15T09:17:21.916Z,4.20
2023-04-15T09:19:49.649Z,2.77
2023-04-15T09:22:17.494Z,3.25
2023-04-15T09:24:45.164Z,1.13
2023-04-15T09:27:12.830Z,3.50
2023-04-15T09:29:42.996Z,2.55
2023-04-15T09:32:13.154Z,2.13
2023-04-15T09:34:40.811Z,1.53
2023-04-15T09:37:11.108Z,1.80
2023-04-15T09:39:52.251Z,2.10
2023-04-15T09:42:29.002Z,6.07
2023-04-15T09:44:57.723Z,1.77
2023-04-15T09:47:28.936Z,1.00
2023-04-15T09:49:57.727Z,9.07
2023-04-15T09:52:25.404Z,2.73
2023-04-15T09:54:55.028Z,6.63
2023-04-15T09:57:23.827Z,5.93
2023-04-15T09:59:51.953Z,7.20
2023-04-15T10:02:21.004Z,5.88
2023-04-15T10:04:51.795Z,6.15
2023-04-15T10:07:22.624Z,5.53
2023-04-15T10:09:53.513Z,4.33
2023-04-15T10:12:21.281Z,1.77
2023-04-15T10:14:59.893Z,4.40
2023-04-15T10:17:35.474Z,8.10
2023-04-15T10:20:04.918Z,3.58
2023-04-15T10:22:33.373Z,3.28
2023-04-15T10:25:01.394Z,8.17
2023-04-15T10:27:29.323Z,4.35
2023-04-15T10:29:57.789Z,5.10
2023-04-15T10:32:25.701Z,3.17
2023-04-15T10:34:54.659Z,2.53
2023-04-15T10:37:22.981Z,3.97
2023-04-15T10:39:50.941Z,5.88
2023-04-15T10:42:19.515Z,5.30
2023-04-15T10:44:51.797Z,5.63
2023-04-15T10:47:20.289Z,3.78
2023-04-15T10:49:48.877Z,5.20
2023-04-15T10:52:17.592Z,6.28
2023-04-15T10:54:45.469Z,9.00
2023-04-15T10:57:17.639Z,5.63
2023-04-15T11:00:04.516Z,5.57
2023-04-15T11:02:41.812Z,4.63
2023-04-15T11:05:10.227Z,3.85
2023-04-15T11:07:49.055Z,4.47
2023-04-15T11:10:21.216Z,4.45
2023-04-15T11:12:49.328Z,4.32
2023-04-15T11:15:37.046Z,4.57
2023-04-15T11:18:12.250Z,6.25
2023-04-15T11:20:40.243Z,3.28
2023-04-15T11:23:14.814Z,3.58
2023-04-15T11:25:43.911Z,5.53
2023-04-15T11:28:12.232Z,3.60
2023-04-15T11:30:40.224Z,6.97
2023-04-15T11:33:12.580Z,8.30
2023-04-15T11:35:41.810Z,7.65
2023-04-15T11:38:10.244Z,4.50
2023-04-15T11:40:37.915Z,8.10
2023-04-15T11:43:06.541Z,6.93
2023-04-15T11:45:34.430Z,7.18
2023-04-15T11:48:08.884Z,8.25
2023-04-15T11:50:38.042Z,6.73
2023-04-15T11:53:08.299Z,3.83
2023-04-15T11:55:43.626Z,4.15
2023-04-15T11:58:16.400Z,5.47
2023-04-15T12:00:48.299Z,3.65
2023-04-15T12:03:26.006Z,5.68
2023-04-15T12:06:12.541Z,12.73
2023-04-15T12:09:00.369Z,3.58
2023-04-15T12:11:31.509Z,6.55
2023-04-15T12:14:00.665Z,8.88
2023-04-15T12:16:28.930Z,4.70
2023-04-15T12:18:57.816Z,7.20
2023-04-15T12:21:26.117Z,5.80
2023-04-15T12:23:57.465Z,5.60
2023-04-15T12:26:29.011Z,5.32
2023-04-15T12:28:57.462Z,8.52
2023-04-15T12:31:25.227Z,6.90
2023-04-15T12:33:52.998Z,3.35
2023-04-15T12:36:20.654Z,2.85
2023-04-15T12:38:48.450Z,6.18
2023-04-15T12:41:16.290Z,10.30
2023-04-15T12:43:46.890Z,7.72
2023-04-15T12:46:15.772Z,4.90
2023-04-15T12:48:43.666Z,6.33
2023-04-15T12:51:11.579Z,4.32
2023-04-15T12:53:39.264Z,5.78
2023-04-15T12:56:07.239Z,8.20
2023-04-15T12:58:35.050Z,9.02
2023-04-15T13:01:03.653Z,4.80
2023-04-15T13:03:31.736Z,6.72
2023-04-15T13:06:00.673Z,5.83
2023-04-15T13:08:28.396Z,8.98
2023-04-15T13:10:56.237Z,11.20
2023-04-15T13:13:24.018Z,6.13
2023-04-15T13:15:51.751Z,6.75
2023-04-15T13:18:19.590Z,9.55
2023-04-15T13:20:47.494Z,10.30
2023-04-15T13:23:18.805Z,4.88
2023-04-15T13:25:46.654Z,7.60
2023-04-15T13:28:14.362Z,6.57
2023-04-15T13:30:42.105Z,6.83
2023-04-15T13:33:09.769Z,6.38
2023-04-15T13:35:37.518Z,4.57
2023-04-15T13:38:05.297Z,6.63
2023-04-15T13:40:33.096Z,7.55
2023-04-15T13:43:00.952Z,7.60
2023-04-15T13:45:37.777Z,8.13
2023-04-15T13:48:05.761Z,7.68
2023-04-15T13:50:33.414Z,11.40
2023-04-15T13:53:01.159Z,10.63
2023-04-15T13:55:28.898Z,5.93
2023-04-15T13:57:57.815Z,10.27
2023-04-15T14:00:25.616Z,7.80
2023-04-15T14:02:53.631Z,8.60
2023-04-15T14:05:21.460Z,8.45
2023-04-15T14:07:49.432Z,8.82
2023-04-15T14:10:17.130Z,10.37
2023-04-15T14:12:44.717Z,7.57
2023-04-15T14:15:13.716Z,16.50
2023-04-15T14:17:42.636Z,3.97
2023-04-15T14:20:10.852Z,9.30
2023-04-15T14:22:38.588Z,6.80
2023-04-15T14:25:06.733Z,5.00
2023-04-15T14:27:37.578Z,13.87
2023-04-15T14:30:06.430Z,14.07
2023-04-15T14:32:34.281Z,8.85
2023-04-15T14:35:01.972Z,7.13
2023-04-15T14:37:29.745Z,9.32
2023-04-15T14:39:57.417Z,10.88
2023-04-15T14:42:25.164Z,16.77
2023-04-15T14:44:52.812Z,12.87
2023-04-15T14:47:20.768Z,11.55
2023-04-15T14:49:48.447Z,13.93
2023-04-15T14:52:16.233Z,4.83
2023-04-15T14:54:43.996Z,11.45
2023-04-15T14:57:11.746Z,9.98
2023-04-15T14:59:39.493Z,10.43
2023-04-15T15:02:07.438Z,5.03
2023-04-15T15:04:36.227Z,10.73
2023-04-15T15:07:04.052Z,11.02
2023-04-15T15:09:33.871Z,8.27
2023-04-15T15:12:02.795Z,14.82
2023-04-15T15:14:30.469Z,13.10
2023-04-15T15:16:58.232Z,10.63
2023-04-15T15:19:25.964Z,9.65
2023-04-15T15:21:53.651Z,12.77
2023-04-15T15:24:21.486Z,6.43
2023-04-15T15:26:49.186Z,13.07
2023-04-15T15:29:16.860Z,9.57
2023-04-15T15:31:44.662Z,7.53
2023-04-15T15:34:12.373Z,15.47
2023-04-15T15:36:40.155Z,10.85
2023-04-15T15:39:08.133Z,13.13
2023-04-15T15:41:37.020Z,4.53
2023-04-15T15:44:04.821Z,8.60
2023-04-15T15:46:32.504Z,11.38
2023-04-15T15:49:00.299Z,9.40
2023-04-15T15:51:27.972Z,9.68
2023-04-15T15:53:55.872Z,11.30
2023-04-15T15:56:23.705Z,10.82
2023-04-15T15:58:51.502Z,9.87
2023-04-15T16:01:19.197Z,9.95
2023-04-15T16:03:47.136Z,10.23
2023-04-15T16:06:14.947Z,15.50
2023-04-15T16:08:42.602Z,9.20
2023-04-15T16:11:10.425Z,22.38
2023-04-15T16:13:38.069Z,16.17
2023-04-15T16:16:05.955Z,13.77
2023-04-15T16:18:35.181Z,26.80
2023-04-15T16:21:03.294Z,21.00
2023-04-15T16:23:30.951Z,12.50
2023-04-15T16:25:58.797Z,13.98
2023-04-15T16:28:27.490Z,10.90
2023-04-15T16:30:55.670Z,8.43
2023-04-15T16:33:23.350Z,12.15
2023-04-15T16:35:51.639Z,10.52
2023-04-15T16:38:19.384Z,22.03
2023-04-15T16:40:47.120Z,17.52
2023-04-15T16:43:14.810Z,12.13
2023-04-15T16:45:44.538Z,12.70
2023-04-15T16:48:12.374Z,6.20
2023-04-15T16:50:40.076Z,14.18
2023-04-15T16:53:09.614Z,8.73
2023-04-15T16:55:37.494Z,18.23
2023-04-15T16:58:08.353Z,15.93
2023-04-15T17:00:37.040Z,9.07
2023-04-15T17:03:06.387Z,16.27
2023-04-15T17:05:34.274Z,19.92
2023-04-15T17:08:02.036Z,15.73
2023-04-15T17:10:29.753Z,11.00
2023-04-15T17:12:57.729Z,23.80
2023-04-15T17:15:25.562Z,18.55
2023-04-15T17:17:53.553Z,8.23
2023-04-15T17:20:21.502Z,13.93
2023-04-15T17:22:49.198Z,17.77
2023-04-15T17:25:17.014Z,17.85
2023-04-15T17:27:44.880Z,8.23
2023-04-15T17:30:12.676Z,20.17
2023-04-15T17:32:40.545Z,15.80
2023-04-15T17:35:08.688Z,18.75
2023-04-15T17:37:36.802Z,17.67
2023-04-15T17:40:07.332Z,17.85
2023-04-15T17:42:36.383Z,18.67
2023-04-15T17:45:06.822Z,11.37
2023-04-15T17:47:34.701Z,12.85
2023-04-15T17:50:02.467Z,16.55
2023-04-15T17:52:30.088Z,21.73
2023-04-15T17:54:58.064Z,13.82
2023-04-15T17:57:25.848Z,13.70
2023-04-15T17:59:53.974Z,17.20
2023-04-15T18:02:21.852Z,8.83
2023-04-15T18:04:49.900Z,20.17
2023-04-15T18:07:17.701Z,14.13
2023-04-15T18:09:45.902Z,21.00
2023-04-15T18:12:14.872Z,16.77
2023-04-15T18:14:42.655Z,16.20
2023-04-15T18:17:10.391Z,14.47
2023-04-15T18:19:38.004Z,21.17
2023-04-15T18:22:05.777Z,23.23
2023-04-15T18:24:33.961Z,21.45
2023-04-15T18:27:01.916Z,23.97
2023-04-15T18:29:31.241Z,24.10
2023-04-15T18:32:00.449Z,25.30
2023-04-15T18:34:28.289Z,18.47
2023-04-15T18:36:59.135Z,24.02
2023-04-15T18:39:27.786Z,22.00
2023-04-15T18:41:57.472Z,28.83
2023-04-15T18:44:25.510Z,27.65
2023-04-15T18:46:53.140Z,25.63
2023-04-15T18:49:21.406Z,27.63
2023-04-15T18:51:49.130Z,21.90
2023-04-15T18:54:16.907Z,23.77
2023-04-15T18:56:44.608Z,38.30
2023-04-15T18:59:28.598Z,21.23
2023-04-15T19:01:58.686Z,30.23
2023-04-15T19:04:26.602Z,21.13
2023-04-15T19:06:54.331Z,23.73
2023-04-15T19:09:22.156Z,24.38
2023-04-15T19:11:49.800Z,27.65
2023-04-15T19:14:18.317Z,33.28
2023-04-15T19:16:46.269Z,29.23
2023-04-15T19:19:16.980Z,37.13
2023-04-15T19:21:46.814Z,29.63
2023-04-15T19:24:14.503Z,38.07
2023-04-15T19:26:42.288Z,34.88
2023-04-15T19:29:10.935Z,34.10
2023-04-15T19:31:38.654Z,39.10
2023-04-15T19:34:06.533Z,34.17
2023-04-15T19:36:34.620Z,30.38
2023-04-15T19:39:02.433Z,32.92
2023-04-15T19:41:30.233Z,33.67
2023-04-15T19:43:57.965Z,41.05
2023-04-15T19:46:27.946Z,44.35
2023-04-15T19:48:56.119Z,41.03
2023-04-15T19:51:23.800Z,39.45
2023-04-15T19:53:53.995Z,31.65
2023-04-15T19:56:21.729Z,41.53
2023-04-15T19:58:52.963Z,39.53
2023-04-15T20:01:21.036Z,43.20
2023-04-15T20:03:48.894Z,39.58
2023-04-15T20:06:16.784Z,38.07
2023-04-15T20:08:44.608Z,44.88
2023-04-15T20:11:12.835Z,39.78
2023-04-15T20:13:42.863Z,46.40
2023-04-15T20:16:11.853Z,50.90
2023-04-15T20:18:39.611Z,48.33
2023-04-15T20:21:07.372Z,41.77
2023-04-15T20:23:36.108Z,46.97
2023-04-15T20:26:03.822Z,42.50
2023-04-15T20:28:31.530Z,36.38
2023-04-15T20:31:03.485Z,37.67
2023-04-15T20:33:31.078Z,32.03
2023-04-15T20:35:59.848Z,34.25
2023-04-15T20:38:27.634Z,39.10
2023-04-15T20:40:55.287Z,34.92
2023-04-15T20:43:22.950Z,35.78
2023-04-15T20:45:53.004Z,34.23
2023-04-15T20:48:21.005Z,35.85
2023-04-15T20:50:48.650Z,29.70
2023-04-15T20:53:16.951Z,40.17
2023-04-15T20:55:44.839Z,33.17
2023-04-15T20:58:12.507Z,32.97
2023-04-15T21:00:40.219Z,34.92
2023-04-15T21:03:08.031Z,34.57
2023-04-15T21:05:35.776Z,23.95
2023-04-15T21:08:03.414Z,40.63
2023-04-15T21:10:35.324Z,40.00
2023-04-15T21:13:03.148Z,33.55
2023-04-15T21:15:30.945Z,48.83
2023-04-15T21:17:58.730Z,38.72
2023-04-15T21:20:26.595Z,39.53
2023-04-15T21:22:54.427Z,30.48
2023-04-15T21:25:22.256Z,29.73
2023-04-15T21:27:50.015Z,30.83
2023-04-15T21:30:17.642Z,31.10
2023-04-15T21:32:47.790Z,34.60
2023-04-15T21:35:15.556Z,31.73
2023-04-15T21:37:43.263Z,35.60
2023-04-15T21:40:11.740Z,29.33
2023-04-15T21:42:39.549Z,44.90
2023-04-15T21:45:07.453Z,29.17
2023-04-15T21:48:05.715Z,41.00
2023-04-15T21:50:24.166Z,35.80
2023-04-15T21:52:51.953Z,41.47
2023-04-15T21:55:22.725Z,32.42
2023-04-15T21:57:50.443Z,31.42
2023-04-15T22:00:18.180Z,28.73
2023-04-15T22:02:46.368Z,30.88
2023-04-15T22:05:14.204Z,30.30
2023-04-15T22:07:41.935Z,28.98
2023-04-15T22:10:09.771Z,39.73
2023-04-15T22:12:37.480Z,34.25
2023-04-15T22:15:05.423Z,34.45
2023-04-15T22:17:33.191Z,35.47
2023-04-15T22:20:00.963Z,35.30
2023-04-15T22:22:44.046Z,43.10
2023-04-15T22:25:12.845Z,39.30
2023-04-15T22:27:40.564Z,58.13
2023-04-15T22:30:08.665Z,45.78
2023-04-15T22:32:36.560Z,48.63
2023-04-15T22:35:06.471Z,45.03
2023-04-15T22:37:34.299Z,46.60
2023-04-15T22:40:02.598Z,41.58
2023-04-15T22:42:30.265Z,48.57
2023-04-15T22:44:58.162Z,41.25
2023-04-15T22:47:26.056Z,42.85
2023-04-15T22:49:53.851Z,29.77
2023-04-15T22:52:30.112Z,36.80
2023-04-15T22:54:59.303Z,36.97
2023-04-15T22:57:27.987Z,31.88
2023-04-15T22:59:55.870Z,39.60
2023-04-15T23:02:23.692Z,29.20
2023-04-15T23:04:51.635Z,36.75
2023-04-15T23:07:19.400Z,31.00
2023-04-15T23:09:47.105Z,35.50
2023-04-15T23:12:14.807Z,38.80
2023-04-15T23:14:42.495Z,36.90
2023-04-15T23:17:10.486Z,42.80
2023-04-15T23:19:38.236Z,32.05
2023-04-15T23:22:07.217Z,22.45
2023-04-15T23:24:34.823Z,34.10
2023-04-15T23:27:02.576Z,33.17
2023-04-15T23:29:30.475Z,31.40
2023-04-15T23:31:58.250Z,32.50
2023-04-15T23:34:26.406Z,28.88
2023-04-15T23:36:54.259Z,44.63
2023-04-15T23:39:22.004Z,35.43
2023-04-15T23:41:49.738Z,31.83
2023-04-15T23:44:17.454Z,36.47
2023-04-15T23:46:45.232Z,45.28
2023-04-15T23:49:13.102Z,31.60
2023-04-15T23:51:40.714Z,37.15
2023-04-15T23:54:08.429Z,32.95
2023-04-15T23:56:36.603Z,31.57
2023-04-15T23:59:04.359Z,39.83
